Time;durP1;ratioP1;P1;durP2;ratioP2;P2;SDS_P1;SDS_P2;PMS_P1;PMS_P2;Temp;Humidity;BMP_temperature;BMP_pressure;BME280_temperature;BME280_humidity;BME280_pressure;Samples;Min_cycle;Max_cycle;Signal;HPM_P1;HPM_P2
2021/11/12 00:13:06;;;;;;;50.87;23.07;;;;;;;9.36;90.39;102371.75;5015314;28;20052;-66
2021/11/12 00:15:34;;;;;;;53.42;23.45;;;;;;;9.32;90.04;102383.13;5028362;28;20025;-66
2021/11/12 00:18:01;;;;;;;51.85;23.55;;;;;;;9.33;89.99;102377.00;5028062;28;20018;-66
2021/11/12 00:20:27;;;;;;;58.20;23.85;;;;;;;9.30;90.12;102366.53;5028592;28;20026;-66
2021/11/12 00:22:52;;;;;;;60.13;24.30;;;;;;;9.26;89.50;102365.66;5027664;28;20018;-67
2021/11/12 00:25:18;;;;;;;62.47;25.85;;;;;;;9.23;89.09;102365.69;5028276;28;20123;-65
2021/11/12 00:27:44;;;;;;;58.60;24.83;;;;;;;9.20;89.02;102361.34;5027495;28;20018;-66
2021/11/12 00:35:11;;;;;;;65.32;25.92;;;;;;;9.22;88.68;102361.34;5026181;28;20036;-67
2021/11/12 00:40:17;;;;;;;56.00;24.63;;;;;;;9.19;88.68;102343.88;5012712;28;20036;-67
2021/11/12 00:42:56;;;;;;;54.35;24.52;;;;;;;9.18;88.00;102339.53;5027163;28;20160;-66
2021/11/12 00:45:24;;;;;;;57.03;24.55;;;;;;;9.19;87.79;102337.75;5026566;28;20095;-66
2021/11/12 00:48:10;;;;;;;55.47;23.08;;;;;;;9.17;88.06;102339.53;5027413;28;20490;-67
2021/11/12 00:55:30;;;;;;;44.08;20.77;;;;;;;9.20;87.16;102327.31;5027787;28;20104;-67
2021/11/12 00:57:56;;;;;;;48.38;21.67;;;;;;;9.18;86.85;102329.06;5026546;28;20060;-67
2021/11/12 01:00:23;;;;;;;42.70;21.10;;;;;;;9.20;86.83;102329.03;5025833;28;20029;-67
2021/11/12 01:02:49;;;;;;;39.88;20.30;;;;;;;9.20;86.37;102334.28;5015296;28;20095;-66
2021/11/12 01:05:15;;;;;;;33.67;18.30;;;;;;;9.21;86.08;102333.41;5020945;28;20104;-67
2021/11/12 01:07:40;;;;;;;37.65;18.83;;;;;;;9.20;85.79;102326.41;5026454;28;20013;-67
2021/11/12 01:10:09;;;;;;;36.47;18.52;;;;;;;9.19;85.35;102328.19;5026297;28;20108;-67
2021/11/12 01:12:36;;;;;;;35.30;16.90;;;;;;;9.22;85.36;102321.19;5026229;28;20028;-67
2021/11/12 01:15:05;;;;;;;33.60;18.17;;;;;;;9.20;84.95;102324.69;5026320;28;20052;-67
2021/11/12 01:17:30;;;;;;;30.27;17.35;;;;;;;9.20;84.83;102319.44;5025882;28;20018;-66
2021/11/12 01:19:56;;;;;;;30.88;16.63;;;;;;;9.23;84.50;102309.81;5026398;28;20390;-66
2021/11/12 01:22:22;;;;;;;34.63;17.13;;;;;;;9.18;84.49;102308.09;5026634;28;20484;-67
2021/11/12 01:24:48;;;;;;;30.83;17.45;;;;;;;9.19;84.44;102308.97;5005030;28;20022;-67
2021/11/12 01:27:13;;;;;;;28.63;16.67;;;;;;;9.18;84.12;102307.25;5017190;28;20032;-67
2021/11/12 01:29:38;;;;;;;28.00;16.88;;;;;;;9.15;84.24;102312.47;5026088;28;20017;-66
2021/11/12 01:32:21;;;;;;;31.38;17.85;;;;;;;9.09;84.64;102302.03;5024824;28;20100;-66
2021/11/12 01:34:59;;;;;;;31.38;17.10;;;;;;;9.09;85.10;102302.91;5026332;28;20507;-66
2021/11/12 01:37:26;;;;;;;31.50;16.70;;;;;;;9.08;85.42;102297.66;5025148;28;20026;-66
2021/11/12 01:39:55;;;;;;;30.67;16.85;;;;;;;9.09;85.46;102296.78;5026442;28;20017;-67
2021/11/12 01:42:22;;;;;;;34.03;16.63;;;;;;;9.08;85.65;102295.94;5026255;28;20036;-67
2021/11/12 01:44:57;;;;;;;30.73;17.35;;;;;;;9.08;85.85;102300.28;5010989;28;20026;-67
2021/11/12 01:47:31;;;;;;;32.05;16.75;;;;;;;9.11;85.89;102295.91;5026059;28;20024;-66
2021/11/12 01:50:03;;;;;;;37.08;17.60;;;;;;;9.10;86.19;102294.16;5023114;28;20402;-67
2021/11/12 01:55:04;;;;;;;29.23;16.90;;;;;;;9.13;86.31;102291.56;5026467;28;20063;-67
2021/11/12 02:00:18;;;;;;;32.03;17.13;;;;;;;9.13;86.68;102285.44;5028327;28;20044;-68
2021/11/12 02:02:44;;;;;;;32.35;16.48;;;;;;;9.12;86.92;102284.56;5020173;28;20045;-67
2021/11/12 02:05:10;;;;;;;31.00;17.58;;;;;;;9.11;87.17;102292.44;5022483;28;20022;-67
2021/11/12 02:07:37;;;;;;;32.55;17.70;;;;;;;9.10;87.41;102291.53;5023706;28;20113;-66
2021/11/12 02:10:09;;;;;;;30.15;16.73;;;;;;;9.08;87.80;102282.84;5028660;28;20028;-66
2021/11/12 02:12:45;;;;;;;35.38;19.10;;;;;;;9.08;88.35;102282.84;5028960;28;20021;-66
2021/11/12 02:15:12;;;;;;;39.13;19.15;;;;;;;9.06;88.31;102279.34;5029544;28;20025;-65
2021/11/12 02:17:41;;;;;;;31.42;18.42;;;;;;;9.06;88.26;102268.88;5026642;28;20022;-66
2021/11/12 02:20:13;;;;;;;33.47;19.05;;;;;;;9.06;88.40;102266.28;5025350;28;20034;-66
2021/11/12 02:22:39;;;;;;;35.55;19.27;;;;;;;9.04;88.51;102265.38;5008751;28;20037;-66
2021/11/12 02:25:09;;;;;;;35.17;19.55;;;;;;;9.06;88.37;102268.88;5031308;28;20095;-66
2021/11/12 02:27:50;;;;;;;29.38;18.42;;;;;;;9.05;88.39;102269.75;5020137;28;20063;-67
2021/11/12 02:30:26;;;;;;;37.05;19.08;;;;;;;9.04;88.08;102257.53;5009348;28;20482;-67
2021/11/12 02:33:11;;;;;;;33.65;19.00;;;;;;;9.03;88.84;102253.22;5024053;28;20033;-66
2021/11/12 02:35:40;;;;;;;30.30;18.55;;;;;;;9.02;88.56;102233.13;5017997;28;20026;-67
2021/11/12 02:38:07;;;;;;;32.30;18.38;;;;;;;8.99;88.10;102231.41;5024359;28;20075;-67
2021/11/12 02:40:33;;;;;;;38.13;19.52;;;;;;;8.90;88.27;102238.41;5026683;28;20021;-67
2021/11/12 02:43:00;;;;;;;33.45;19.05;;;;;;;8.92;88.63;102236.66;5026964;28;20040;-67
2021/11/12 02:45:26;;;;;;;32.53;19.10;;;;;;;8.92;88.34;102249.72;5027999;28;20104;-67
2021/11/12 02:47:51;;;;;;;34.30;19.25;;;;;;;8.92;88.79;102247.13;5028331;28;20017;-66
2021/11/12 02:50:18;;;;;;;36.67;19.58;;;;;;;8.96;88.73;102234.03;5026103;28;20075;-66
2021/11/12 02:52:46;;;;;;;33.63;18.27;;;;;;;8.93;88.68;102220.06;5018944;28;20401;-67
2021/11/12 02:55:12;;;;;;;32.70;18.63;;;;;;;8.92;88.81;102213.09;5016491;28;20028;-66
2021/11/12 02:57:38;;;;;;;35.10;17.98;;;;;;;8.94;88.21;102211.34;5026763;28;20309;-67
2021/11/12 03:00:08;;;;;;;33.03;18.17;;;;;;;8.93;88.16;102209.59;5014531;28;20083;-66
2021/11/12 03:02:34;;;;;;;29.13;17.35;;;;;;;8.94;87.85;102204.34;5021231;28;20851;-66
2021/11/12 03:05:00;;;;;;;31.98;17.23;;;;;;;8.93;87.94;102207.88;5022714;28;20056;-66
2021/11/12 03:07:27;;;;;;;35.97;18.02;;;;;;;8.90;88.17;102204.41;5009453;28;20442;-66
2021/11/12 03:09:52;;;;;;;32.67;17.65;;;;;;;8.86;88.17;102203.53;5016713;28;20029;-67
2021/11/12 03:12:18;;;;;;;31.48;17.52;;;;;;;8.84;88.11;102198.31;5029086;28;20029;-67
2021/11/12 03:14:44;;;;;;;31.35;17.65;;;;;;;8.92;88.05;102187.81;5016260;28;20025;-67
2021/11/12 03:17:09;;;;;;;33.13;18.05;;;;;;;8.84;87.80;102182.63;5025184;28;20366;-67
2021/11/12 03:19:35;;;;;;;32.95;17.75;;;;;;;8.80;87.96;102178.25;5011752;28;20026;-67
2021/11/12 03:22:05;;;;;;;29.77;17.90;;;;;;;8.79;87.94;102181.75;5028632;28;20432;-66
2021/11/12 03:24:35;;;;;;;33.53;18.17;;;;;;;8.81;87.95;102174.78;5027695;28;20037;-66
2021/11/12 03:59:57;;;;;;;;;;;;;;;8.54;86.96;102103.38;5028871;28;20045;-67
2021/11/12 05:03:14;;;;;;;28.05;17.77;;;;;;;8.04;87.45;102046.91;5018510;28;20067;-67
2021/11/12 05:46:26;;;;;;;31.67;20.20;;;;;;;6.92;91.56;102040.88;5030485;28;20045;-66
2021/11/12 05:51:45;;;;;;;32.55;20.58;;;;;;;6.78;92.08;102023.47;5027779;28;20044;-66
2021/11/12 05:56:55;;;;;;;37.47;22.35;;;;;;;6.63;92.64;101987.78;5030517;28;19920;-66
2021/11/12 05:59:23;;;;;;;37.88;23.13;;;;;;;6.62;92.88;101973.03;5032327;28;20029;-66
2021/11/12 06:01:48;;;;;;;39.45;23.85;;;;;;;6.52;93.15;101986.03;5025322;28;20036;-66
2021/11/12 06:04:14;;;;;;;37.55;23.85;;;;;;;6.48;93.49;101998.19;5029163;28;20033;-66
2021/11/12 06:06:40;;;;;;;38.35;23.08;;;;;;;6.46;93.76;101992.97;5023165;28;20017;-66
2021/11/12 06:09:06;;;;;;;36.85;24.85;;;;;;;6.47;93.54;101991.22;5025674;28;20441;-67
2021/11/12 06:11:32;;;;;;;40.35;25.58;;;;;;;6.41;93.75;101984.28;5018131;28;20058;-67
2021/11/12 06:13:58;;;;;;;42.67;25.23;;;;;;;6.37;93.65;101982.50;5007676;28;20109;-67
2021/11/12 06:16:24;;;;;;;41.67;26.90;;;;;;;6.34;94.20;101981.63;5026599;28;20104;-67
2021/11/12 06:18:50;;;;;;;45.70;27.27;;;;;;;6.33;94.18;101969.50;5008434;28;20055;-67
2021/11/12 06:21:16;;;;;;;46.10;26.75;;;;;;;6.29;94.41;101964.25;5012592;28;20025;-67
2021/11/12 06:23:41;;;;;;;49.05;27.55;;;;;;;6.24;94.43;101958.16;5025159;28;20078;-67
2021/11/12 06:26:07;;;;;;;49.00;28.38;;;;;;;6.20;94.86;101956.44;5011327;28;20358;-67
2021/11/12 06:28:33;;;;;;;49.58;28.80;;;;;;;6.18;94.80;101963.34;5023793;28;20027;-67
2021/11/12 06:31:00;;;;;;;48.38;28.33;;;;;;;6.13;95.17;101962.47;5023854;28;20030;-67
2021/11/12 06:33:26;;;;;;;48.42;29.45;;;;;;;6.12;95.28;101966.78;5023371;28;20049;-67
2021/11/12 06:35:51;;;;;;;48.28;28.58;;;;;;;6.12;95.41;101974.63;5026003;28;20024;-67
2021/11/12 06:38:20;;;;;;;49.20;28.55;;;;;;;6.09;95.49;101986.75;5025318;28;20018;-66
2021/11/12 06:40:46;;;;;;;48.55;28.58;;;;;;;6.04;95.61;101993.69;5021047;28;20734;-66
2021/11/12 06:43:24;;;;;;;49.60;29.50;;;;;;;6.02;96.47;101985.88;5011636;28;20056;-66
2021/11/12 06:51:21;;;;;;;55.72;31.67;;;;;;;5.90;96.84;101959.75;5035136;28;20091;-67
2021/11/12 06:53:46;;;;;;;57.72;32.00;;;;;;;5.86;97.00;101965.81;5030514;28;20431;-67
2021/11/12 06:56:12;;;;;;;54.80;29.67;;;;;;;5.86;96.64;101951.03;5017249;28;20115;-66
2021/11/12 06:58:40;;;;;;;61.42;33.28;;;;;;;5.81;96.97;101955.34;5033026;28;20536;-66
2021/11/12 07:01:06;;;;;;;60.28;32.95;;;;;;;5.78;97.30;101953.63;5032838;28;20437;-66
2021/11/12 07:03:32;;;;;;;57.83;31.70;;;;;;;5.79;97.40;101954.47;5035948;28;20029;-67
2021/11/12 07:05:58;;;;;;;65.32;34.72;;;;;;;5.80;97.23;101957.09;5033880;28;20017;-66
2021/11/12 07:08:23;;;;;;;60.05;34.55;;;;;;;5.80;97.58;101962.31;5026037;28;20064;-65
2021/11/12 07:10:52;;;;;;;67.97;35.22;;;;;;;5.81;97.35;101953.63;5006466;28;20022;-67
2021/11/12 07:13:18;;;;;;;66.95;36.25;;;;;;;5.79;97.28;101962.28;5016510;28;20573;-67
2021/11/12 07:15:43;;;;;;;66.15;36.17;;;;;;;5.77;97.63;101967.50;5016921;28;20060;-67
2021/11/12 07:18:08;;;;;;;73.40;36.55;;;;;;;5.80;97.75;101958.81;5010542;28;20474;-67
2021/11/12 07:20:34;;;;;;;65.40;36.42;;;;;;;5.82;97.63;101951.91;5025469;28;20041;-67
2021/11/12 07:22:59;;;;;;;73.45;36.58;;;;;;;5.78;97.62;101950.13;5025967;28;20024;-65
2021/11/12 07:25:25;;;;;;;68.03;34.83;;;;;;;5.76;97.92;101939.72;5024104;28;20242;-67
2021/11/12 07:27:50;;;;;;;70.35;35.97;;;;;;;5.77;97.98;101935.38;5025435;28;20025;-67
2021/11/12 07:30:19;;;;;;;63.17;36.03;;;;;;;5.76;97.75;101937.09;5024396;28;20421;-66
2021/11/12 07:32:45;;;;;;;66.53;35.28;;;;;;;5.76;97.70;101926.69;5011067;28;20041;-66
2021/11/12 07:35:12;;;;;;;64.90;34.95;;;;;;;5.77;97.80;101924.97;5024612;28;20025;-66
2021/11/12 07:37:37;;;;;;;59.70;34.78;;;;;;;5.81;97.90;101931.94;5023875;28;20036;-66
2021/11/12 07:40:06;;;;;;;71.10;34.72;;;;;;;5.84;97.77;101918.91;5023030;28;20017;-66
2021/11/12 07:42:54;;;;;;;68.22;36.67;;;;;;;5.85;97.33;101918.03;5021275;28;20528;-66
2021/11/12 07:45:41;;;;;;;66.03;34.05;;;;;;;5.93;97.35;101918.97;5020515;28;20128;-67
2021/11/12 07:48:06;;;;;;;59.35;33.47;;;;;;;5.98;96.83;101916.38;5023697;28;20021;-66
2021/11/12 07:50:32;;;;;;;57.45;32.92;;;;;;;5.97;96.57;101915.50;5022153;28;20176;-66
2021/11/12 07:52:59;;;;;;;63.25;35.08;;;;;;;6.01;96.67;101913.81;5024118;28;20028;-66
2021/11/12 07:55:25;;;;;;;63.40;35.53;;;;;;;6.05;96.25;101912.06;5021547;28;20113;-66
2021/11/12 07:57:51;;;;;;;66.70;35.65;;;;;;;6.00;95.95;101909.44;5008211;28;20108;-66
2021/11/12 08:00:17;;;;;;;63.13;33.85;;;;;;;6.12;95.85;101898.22;5023651;28;20361;-66
2021/11/12 08:02:43;;;;;;;68.47;35.10;;;;;;;6.12;95.61;101903.41;5021628;28;20108;-67
2021/11/12 08:05:31;;;;;;;59.05;33.65;;;;;;;6.12;95.56;101899.06;5017988;28;20029;-67
2021/11/12 08:07:59;;;;;;;59.70;33.13;;;;;;;6.17;95.22;101893.03;5012728;28;20397;-65
2021/11/12 08:10:28;;;;;;;60.15;33.03;;;;;;;6.28;94.93;101889.56;5016868;28;20109;-67
2021/11/12 08:16:01;;;;;;;53.45;29.67;;;;;;;6.54;93.23;101886.13;5011834;28;20676;-66
2021/11/12 08:18:49;;;;;;;60.28;31.65;;;;;;;6.62;92.86;101889.59;5018598;28;20030;-66
2021/11/12 08:21:28;;;;;;;53.95;30.92;;;;;;;6.69;92.85;101890.47;5019883;28;20033;-66
2021/11/12 08:24:01;;;;;;;52.80;30.48;;;;;;;6.76;92.67;101880.91;5028381;28;20053;-66
2021/11/12 08:26:34;;;;;;;52.10;31.70;;;;;;;6.89;92.17;101869.59;5012740;28;20037;-66
2021/11/12 08:34:42;;;;;;;49.17;29.65;;;;;;;7.46;88.52;101868.59;5016242;28;20090;-65
2021/11/12 08:40:11;;;;;;;49.67;28.58;;;;;;;7.93;86.49;101866.66;5007701;28;20040;-67
2021/11/12 08:42:44;;;;;;;45.97;28.15;;;;;;;8.25;86.13;101860.38;5014173;28;20018;-67
2021/11/12 08:47:41;;;;;;;57.63;29.50;;;;;;;8.58;82.57;101862.78;5015440;28;20117;-67
2021/11/12 08:50:12;;;;;;;48.55;29.65;;;;;;;8.69;83.30;101850.47;5027219;28;20029;-65
2021/11/12 08:52:38;;;;;;;51.00;28.58;;;;;;;8.91;81.16;101848.53;5022690;28;20219;-65
2021/11/12 08:55:07;;;;;;;53.20;31.95;;;;;;;8.72;81.13;101845.22;5027527;28;20021;-66
2021/11/12 08:57:32;;;;;;;51.08;31.35;;;;;;;8.97;80.86;101835.38;5024220;28;20034;-65
2021/11/12 08:59:57;;;;;;;53.58;32.35;;;;;;;8.98;79.23;101855.44;5022759;28;20057;-66
2021/11/12 09:02:25;;;;;;;54.92;31.73;;;;;;;9.04;78.85;101847.53;5024576;28;20030;-66
2021/11/12 09:04:51;;;;;;;63.38;32.88;;;;;;;8.79;80.30;101851.25;5013637;28;20488;-66
2021/11/12 09:07:17;;;;;;;58.45;32.80;;;;;;;8.77;80.34;101847.78;5008333;28;20022;-66
2021/11/12 09:09:45;;;;;;;60.15;35.38;;;;;;;8.84;80.39;101826.81;5008023;28;20277;-67
2021/11/12 09:12:12;;;;;;;64.03;36.17;;;;;;;8.69;79.67;101834.78;4991593;28;20098;-67
2021/11/12 09:14:42;;;;;;;69.25;36.35;;;;;;;8.71;80.13;101825.19;5025144;28;20025;-67
2021/11/12 09:17:08;;;;;;;75.00;37.80;;;;;;;8.41;80.38;101827.16;5027454;28;20024;-66
2021/11/12 09:19:40;;;;;;;69.28;37.97;;;;;;;8.38;82.03;101833.28;5023195;28;20389;-67
2021/11/12 09:22:05;;;;;;;66.82;36.45;;;;;;;8.64;80.60;101824.34;5027172;28;20036;-67
2021/11/12 09:24:31;;;;;;;70.63;36.35;;;;;;;8.35;81.37;101824.59;5027504;28;20021;-67
2021/11/12 09:26:56;;;;;;;72.75;38.83;;;;;;;8.37;81.13;101825.44;5025659;28;20106;-67
2021/11/12 09:29:21;;;;;;;69.85;37.15;;;;;;;8.19;81.55;101816.84;5005299;28;20034;-67
2021/11/12 09:31:48;;;;;;;79.10;37.78;;;;;;;8.13;82.45;101808.19;5022356;28;20021;-67
2021/11/12 09:34:14;;;;;;;67.90;35.35;;;;;;;8.19;83.48;101809.00;5025703;28;20442;-67
2021/11/12 09:36:40;;;;;;;70.57;36.63;;;;;;;7.99;82.71;101808.25;5029317;28;20108;-67
2021/11/12 09:39:06;;;;;;;70.05;34.90;;;;;;;8.18;81.86;101801.19;5025540;28;20129;-67
2021/11/12 09:41:31;;;;;;;61.70;33.00;;;;;;;8.21;82.29;101801.16;5023528;28;20034;-65
2021/11/12 09:43:57;;;;;;;63.13;33.42;;;;;;;8.28;80.83;101802.84;5021249;28;20504;-65
2021/11/12 09:46:22;;;;;;;67.95;36.00;;;;;;;8.50;81.72;101797.47;5010015;28;20033;-67
2021/11/12 09:48:48;;;;;;;65.68;33.97;;;;;;;8.77;80.02;101793.75;5031009;28;20036;-67
2021/11/12 09:51:13;;;;;;;56.53;31.85;;;;;;;8.66;79.44;101788.59;5038275;28;20056;-67
2021/11/12 09:53:40;;;;;;;59.30;33.83;;;;;;;8.29;81.17;101794.13;5032150;28;20029;-67
2021/11/12 09:56:08;;;;;;;59.92;34.25;;;;;;;7.99;82.00;101795.19;5036462;28;20060;-67
2021/11/12 09:58:35;;;;;;;57.08;31.83;;;;;;;7.93;81.72;101790.91;5033787;28;20048;-67
2021/11/12 10:01:00;;;;;;;58.35;32.95;;;;;;;7.85;83.56;101793.56;5027868;28;20036;-67
2021/11/12 10:03:33;;;;;;;58.55;32.72;;;;;;;7.87;83.41;101791.78;5028258;28;20025;-67
2021/11/12 10:06:00;;;;;;;59.30;32.00;;;;;;;8.14;83.40;101782.03;5033894;28;20501;-67
2021/11/12 10:08:34;;;;;;;58.83;31.17;;;;;;;8.53;81.16;101774.78;5032098;28;20049;-67
2021/11/12 10:11:00;;;;;;;54.00;31.42;;;;;;;8.95;80.91;101769.13;5025790;28;20089;-67
2021/11/12 10:13:30;;;;;;;54.08;30.13;;;;;;;9.12;78.20;101762.84;5026603;28;20722;-67
2021/11/12 10:16:12;;;;;;;49.42;27.95;;;;;;;9.49;76.75;101765.84;5016525;28;20115;-67
2021/11/12 10:18:58;;;;;;;47.10;28.58;;;;;;;9.59;75.86;101756.09;5039699;28;20540;-67
2021/11/12 10:21:27;;;;;;;51.90;28.50;;;;;;;10.10;74.27;101755.34;5030681;28;20025;-67
2021/11/12 10:23:58;;;;;;;48.90;27.58;;;;;;;10.60;73.38;101747.50;5041031;28;20831;-67
2021/11/12 10:26:29;;;;;;;42.97;25.83;;;;;;;10.65;70.63;101744.81;5019018;28;20415;-67
2021/11/12 10:28:59;;;;;;;43.60;26.10;;;;;;;11.14;69.51;101743.84;5034640;28;20421;-66
2021/11/12 10:31:25;;;;;;;44.70;27.13;;;;;;;11.57;66.93;101744.69;5030045;28;20363;-65
2021/11/12 10:33:51;;;;;;;42.60;26.60;;;;;;;11.26;68.07;101742.72;5026245;28;20022;-67
2021/11/12 10:36:19;;;;;;;43.42;26.77;;;;;;;11.76;68.10;101729.34;5008093;28;20463;-67
2021/11/12 10:38:47;;;;;;;37.85;25.98;;;;;;;12.37;65.27;101723.47;5022433;28;20022;-66
2021/11/12 10:41:21;;;;;;;36.03;23.92;;;;;;;13.09;62.15;101727.66;5005625;28;20030;-67
2021/11/12 10:43:48;;;;;;;36.22;23.63;;;;;;;12.99;61.20;101710.41;5008716;28;20452;-66
2021/11/12 10:46:14;;;;;;;39.30;24.65;;;;;;;13.12;60.30;101708.28;5006902;28;20037;-66
2021/11/12 10:48:39;;;;;;;35.65;23.98;;;;;;;13.43;60.57;101710.00;5003269;28;20017;-67
2021/11/12 10:51:23;;;;;;;37.63;23.88;;;;;;;14.17;58.03;101697.06;4988518;28;20029;-66
2021/11/12 10:53:53;;;;;;;36.47;23.07;;;;;;;14.00;56.72;101695.00;5018156;28;20033;-67
2021/11/12 10:56:22;;;;;;;42.35;24.17;;;;;;;14.12;55.89;101680.53;5026671;28;20729;-66
2021/11/12 10:59:04;;;;;;;39.65;24.15;;;;;;;13.48;58.04;101676.47;5040194;28;20083;-66
2021/11/12 11:01:32;;;;;;;35.63;23.52;;;;;;;12.83;59.33;101673.97;5038187;28;20029;-67
2021/11/12 11:04:19;;;;;;;42.35;25.17;;;;;;;12.06;62.91;101669.06;5030328;28;20053;-67
2021/11/12 11:06:46;;;;;;;37.80;24.08;;;;;;;11.58;64.44;101675.44;4989273;28;20026;-66
2021/11/12 11:09:12;;;;;;;44.70;25.27;;;;;;;11.69;65.58;101667.31;5020464;28;20470;-67
2021/11/12 11:11:39;;;;;;;40.83;24.75;;;;;;;11.66;65.11;101663.88;5012079;28;20085;-66
2021/11/12 11:14:04;;;;;;;43.03;26.33;;;;;;;11.41;66.04;101667.09;5008246;28;20068;-66
2021/11/12 11:16:30;;;;;;;38.92;23.85;;;;;;;11.62;65.62;101661.34;5005712;28;20025;-67
2021/11/12 11:18:56;;;;;;;39.65;24.40;;;;;;;10.99;67.60;101652.28;5007929;28;20483;-68
2021/11/12 11:23:58;;;;;;;43.35;24.10;;;;;;;10.43;69.92;101660.41;5006048;28;20034;-67
2021/11/12 11:26:26;;;;;;;38.13;22.85;;;;;;;9.96;71.66;101634.13;5007079;28;20054;-67
2021/11/12 11:29:02;;;;;;;39.40;24.75;;;;;;;9.50;73.45;101631.41;5006347;28;20411;-67
2021/11/12 11:31:31;;;;;;;44.25;23.63;;;;;;;9.34;75.46;101627.25;5017718;28;20453;-66
2021/11/12 11:33:57;;;;;;;38.08;23.98;;;;;;;9.36;75.25;101625.50;5013554;28;20192;-67
2021/11/12 11:36:25;;;;;;;40.05;24.48;;;;;;;9.19;76.03;101616.16;5029869;28;20021;-67
2021/11/12 11:38:52;;;;;;;38.38;22.73;;;;;;;9.22;75.94;101607.38;5029986;28;20138;-67
2021/11/12 11:41:18;;;;;;;37.53;23.60;;;;;;;9.27;76.16;101615.19;5012278;28;20026;-66
2021/11/12 11:43:45;;;;;;;36.42;22.85;;;;;;;9.42;75.97;101601.00;5014504;28;20029;-67
2021/11/12 11:46:15;;;;;;;40.20;21.83;;;;;;;9.46;75.13;101600.88;5014716;28;20022;-67
2021/11/12 11:48:42;;;;;;;37.50;23.13;;;;;;;9.47;75.17;101594.78;5008516;28;20014;-69
2021/11/12 11:51:09;;;;;;;39.38;21.67;;;;;;;9.65;74.67;101584.88;4997759;28;20089;-67
2021/11/12 11:53:48;;;;;;;38.83;23.17;;;;;;;9.73;75.71;101583.00;5018299;28;20021;-67
2021/11/12 11:56:22;;;;;;;40.08;22.48;;;;;;;9.78;74.84;101578.53;5023240;28;20026;-67
2021/11/12 11:58:56;;;;;;;34.28;21.35;;;;;;;9.79;75.05;101572.41;5020114;28;20025;-68
2021/11/12 12:01:22;;;;;;;36.53;22.25;;;;;;;9.82;75.48;101577.59;5025218;28;20029;-68
2021/11/12 12:04:10;;;;;;;33.60;20.67;;;;;;;9.88;74.68;101578.38;5027705;28;20836;-68
2021/11/12 12:06:43;;;;;;;43.45;22.25;;;;;;;9.78;74.79;101575.06;5026708;28;20156;-68
2021/11/12 12:09:12;;;;;;;35.17;20.52;;;;;;;9.58;75.37;101573.66;5010183;28;20359;-67
2021/11/12 12:11:46;;;;;;;34.17;20.90;;;;;;;9.51;75.81;101572.91;5026884;28;20079;-68
2021/11/12 12:14:25;;;;;;;34.58;20.02;;;;;;;9.52;75.46;101560.66;5012766;28;20490;-68
2021/11/12 13:25:53;;;;;;;36.60;19.80;;;;;;;9.87;75.52;101437.78;5023181;28;20037;-69
2021/11/12 13:28:27;;;;;;;33.42;19.73;;;;;;;9.90;75.24;101435.09;5023822;28;20484;-68
2021/11/12 13:31:08;;;;;;;26.65;17.83;;;;;;;9.91;74.94;101423.72;5026406;28;20046;-68
2021/11/12 13:33:51;;;;;;;32.75;19.55;;;;;;;9.92;75.28;101428.91;5005650;28;20434;-68
2021/11/12 13:36:28;;;;;;;30.20;18.27;;;;;;;10.05;75.38;101429.53;5023746;28;20216;-68
2021/11/12 13:39:17;;;;;;;31.88;19.48;;;;;;;9.96;74.50;101414.88;5013587;28;20030;-68
2021/11/12 13:41:47;;;;;;;33.70;17.77;;;;;;;10.06;74.52;101412.91;5022512;28;20071;-69
2021/11/12 13:44:18;;;;;;;32.55;18.45;;;;;;;10.11;75.02;101408.44;5031184;28;20036;-69
2021/11/12 13:46:55;;;;;;;30.15;18.05;;;;;;;10.16;74.76;101405.72;5024187;28;20025;-69
2021/11/12 13:49:34;;;;;;;33.10;18.45;;;;;;;10.02;73.82;101413.84;5022239;28;20127;-69
2021/11/12 13:52:34;;;;;;;26.45;18.35;;;;;;;9.99;75.16;101403.47;5011794;28;20056;-69
2021/11/12 13:55:12;;;;;;;31.83;17.35;;;;;;;10.08;74.03;101394.53;5011381;28;20098;-68
2021/11/12 13:57:38;;;;;;;28.75;16.85;;;;;;;10.15;73.72;101393.50;5025364;28;20136;-69
2021/11/12 14:00:07;;;;;;;25.17;15.68;;;;;;;10.24;73.05;101384.56;5007699;28;20066;-70
2021/11/12 14:03:04;;;;;;;44.10;17.35;;;;;;;10.15;73.12;101383.03;5027082;28;20032;-70
2021/11/12 14:05:31;;;;;;;29.35;17.20;;;;;;;10.16;73.62;101380.34;5007666;28;20212;-69
2021/11/12 14:08:01;;;;;;;34.10;17.90;;;;;;;10.13;73.21;101377.81;5018653;28;20043;-70
2021/11/12 14:10:39;;;;;;;28.50;16.80;;;;;;;10.17;73.09;101386.44;5029150;28;20317;-70
2021/11/12 14:13:06;;;;;;;30.48;16.08;;;;;;;10.09;72.68;101397.13;5020619;28;20555;-70
2021/11/12 14:15:38;;;;;;;27.60;16.10;;;;;;;10.03;72.51;101392.00;5022918;28;20048;-69
2021/11/12 14:38:06;;;;;;;31.13;16.45;;;;;;;9.98;74.00;101355.41;5027254;28;20221;-68
2021/11/12 14:48:59;;;;;;;30.45;15.45;;;;;;;9.92;74.33;101349.44;5012407;28;20037;-68
2021/11/12 14:51:45;;;;;;;29.65;16.48;;;;;;;9.84;75.46;101352.25;5009490;28;20087;-68
2021/11/12 14:54:12;;;;;;;24.67;14.30;;;;;;;9.87;75.05;101369.66;5019042;28;20036;-66
2021/11/12 14:56:43;;;;;;;28.20;15.55;;;;;;;9.78;75.41;101360.25;5035062;28;20037;-68
2021/11/12 14:59:15;;;;;;;26.02;14.30;;;;;;;9.79;74.60;101354.97;5042438;28;20116;-67
2021/11/12 15:01:41;;;;;;;19.75;12.43;;;;;;;9.80;74.34;101350.59;5037400;28;20022;-68
2021/11/12 15:04:06;;;;;;;25.80;13.23;;;;;;;9.84;73.75;101340.00;5035872;28;20025;-68
2021/11/12 15:06:34;;;;;;;28.33;12.77;;;;;;;9.86;74.15;101340.00;5036992;28;20032;-68
2021/11/12 15:11:27;;;;;;;27.85;12.88;;;;;;;9.86;74.15;101326.88;5037772;28;20033;-69
2021/11/12 15:13:55;;;;;;;21.90;12.38;;;;;;;9.87;74.06;101336.44;5023660;28;20064;-68
2021/11/12 15:16:25;;;;;;;20.20;12.23;;;;;;;9.90;73.63;101327.66;5030509;28;20480;-69
2021/11/12 15:18:55;;;;;;;23.17;12.20;;;;;;;9.85;74.19;101331.25;5031979;28;20025;-68
2021/11/12 15:21:27;;;;;;;19.88;11.85;;;;;;;9.87;73.67;101323.34;5022214;28;20030;-69
2021/11/12 15:26:43;;;;;;;21.63;11.88;;;;;;;9.92;74.02;101331.97;5031466;28;20041;-69
2021/11/12 15:34:03;;;;;;;21.25;11.90;;;;;;;9.93;74.76;101317.13;5012032;28;20072;-69
2021/11/12 15:36:30;;;;;;;24.17;11.23;;;;;;;9.94;74.27;101313.59;5010024;28;20018;-69
2021/11/12 15:39:08;;;;;;;20.00;10.85;;;;;;;9.96;73.23;101310.06;5009609;28;20026;-68
2021/11/12 15:44:17;;;;;;;17.48;10.38;;;;;;;10.04;71.72;101302.00;5023897;28;20376;-69
2021/11/12 15:46:45;;;;;;;14.18;8.73;;;;;;;10.07;71.42;101290.59;5014225;28;20065;-69
2021/11/12 15:49:15;;;;;;;17.27;8.68;;;;;;;10.07;71.04;101291.47;5007669;28;20018;-69
2021/11/12 15:51:44;;;;;;;15.93;8.50;;;;;;;10.06;70.75;101297.59;5019841;28;20406;-69
2021/11/12 16:00:10;;;;;;;13.00;8.05;;;;;;;10.05;70.24;101279.25;5022451;28;20103;-68
2021/11/12 16:02:52;;;;;;;13.00;7.95;;;;;;;10.07;70.80;101288.84;5016029;28;20028;-68
2021/11/12 16:05:39;;;;;;;13.00;7.93;;;;;;;10.04;70.60;101283.66;5004507;28;20041;-67
2021/11/12 16:08:10;;;;;;;15.38;7.65;;;;;;;10.02;70.23;101282.81;5011909;28;20024;-67
2021/11/12 16:18:37;;;;;;;14.05;8.60;;;;;;;9.94;72.46;101285.63;5013262;28;20057;-67
2021/11/12 16:21:12;;;;;;;19.02;9.20;;;;;;;9.90;72.18;101280.50;5019570;28;20099;-68
2021/11/12 16:26:27;;;;;;;18.70;8.13;;;;;;;9.82;72.41;101286.78;5010087;28;20064;-67
2021/11/12 16:31:38;;;;;;;28.45;13.68;;;;;;;9.84;73.35;101286.75;5022143;28;20171;-67
2021/11/12 16:34:10;;;;;;;17.65;9.45;;;;;;;9.82;73.31;101273.69;5027267;28;20032;-67
2021/11/12 16:36:41;;;;;;;19.75;9.65;;;;;;;9.81;73.68;101271.97;5014808;28;20034;-68
2021/11/12 16:39:07;;;;;;;14.50;10.00;;;;;;;9.82;74.11;101268.44;5027547;28;20024;-68
2021/11/12 16:41:33;;;;;;;13.77;8.82;;;;;;;9.80;74.42;101269.38;5006477;28;20034;-68
2021/11/12 16:44:17;;;;;;;15.95;9.35;;;;;;;9.77;75.09;101282.53;5020052;28;20034;-68
2021/11/12 16:46:54;;;;;;;14.00;8.90;;;;;;;9.74;75.62;101272.13;5025398;28;20021;-68
2021/11/12 16:49:46;;;;;;;19.70;9.32;;;;;;;9.77;75.58;101275.53;5022973;28;20478;-67